M I D A S
Marine Information and Data Acquisition System
Tripno 2295 of the Zeeleeuw from 2012-04-24 10:33:03 to 2012-04-24 16:19:00
Back to CruiseResearch ActivitiesStationsMapUnderway DataData graphs

EquipmentUnitsComment
TimeDGPSUTC
LatitudeDGPSDM.mWGS84
LongitudeDGPSDM.mWGS84
HeadingGyrodeg 
SOGDGPSknotsSpeed over ground
COGDGPSdegCourse over ground
DepthEcho soundermeters200 kHz
Missing or incorrect values are displayed as -999
Navigation data collected by the RV Zeeleeuw from 2012-04-24 10:14:09 to 2012-04-24 16:22:50
Time Latitude Longitude Heading SOG COG Depth
2012-04-24 10:15:14 51°13.636 2°56.018 128.9 -999 277 -999
2012-04-24 10:16:15 51°13.636 2°56.018 128.8 -999 92 -999
2012-04-24 10:17:15 51°13.637 2°56.018 128.8 -999 255 -999
2012-04-24 10:18:15 51°13.636 2°56.018 128.8 -999 236 -999
2012-04-24 10:19:14 51°13.637 2°56.018 128.7 -999 228 -999
2012-04-24 10:20:15 51°13.636 2°56.019 128.6 -999 106 -999
2012-04-24 10:21:14 51°13.636 2°56.019 128.1 -999 293 7.6
2012-04-24 10:22:14 51°13.637 2°56.019 128.1 -999 234 -999
2012-04-24 10:23:14 51°13.637 2°56.019 128.8 -999 218 -999
2012-04-24 10:24:14 51°13.637 2°56.018 128.6 -999 257 -999
2012-04-24 10:25:15 51°13.635 2°56.018 128.6 -999 307 -999
2012-04-24 10:26:14 51°13.636 2°56.017 130 -999 250 -999
2012-04-24 10:27:15 51°13.636 2°56.017 130.3 -999 276 -999
2012-04-24 10:28:14 51°13.635 2°56.018 130 -999 67 -999
2012-04-24 10:29:15 51°13.635 2°56.018 128.7 -999 263 -999
2012-04-24 10:30:15 51°13.636 2°56.018 128.5 -999 19 7.7
2012-04-24 10:31:15 51°13.636 2°56.017 128.1 -999 172 -999
2012-04-24 10:32:15 51°13.636 2°56.018 128.1 -999 31 -999
2012-04-24 10:33:14 51°13.636 2°56.017 119.8 0.1 189 -999
2012-04-24 10:34:13 51°13.635 2°56.015 108.7 0.8 291 7.9
2012-04-24 10:35:14 51°13.654 2°55.941 111.5 4.2 292 -999
2012-04-24 10:36:14 51°13.687 2°55.824 126.4 5.2 303 -999
2012-04-24 10:37:15 51°13.75 2°55.718 140.6 5.6 320 -999
2012-04-24 10:38:15 51°13.828 2°55.635 156.4 5.4 335 -999
2012-04-24 10:39:14 51°13.897 2°55.604 180.8 3.7 356 -999
2012-04-24 10:40:15 51°13.95 2°55.624 211.6 2.9 26 -999
2012-04-24 10:41:14 51°13.971 2°55.64 244.3 0.9 268 -999
2012-04-24 10:42:14 51°13.997 2°55.567 317.2 5.8 318 -999
2012-04-24 10:43:15 51°14.11 2°55.448 330.2 9.2 328 -999
2012-04-24 10:44:15 51°14.252 2°55.309 331.7 10.5 329 -999
2012-04-24 10:45:15 51°14.406 2°55.151 328.5 11.5 324 -999
2012-04-24 10:46:14 51°14.56 2°54.964 323.6 12.1 321 12.1
2012-04-24 10:47:13 51°14.715 2°54.77 329.3 12 322 11.4
2012-04-24 10:48:12 51°14.868 2°54.572 328.3 12 323 11.8
2012-04-24 10:49:11 51°15.043 2°54.458 355 11.5 352 11.2
2012-04-24 10:50:11 51°15.216 2°54.535 36.9 10.9 36 9.1
2012-04-24 10:51:11 51°15.359 2°54.716 39 11 33 9.3
2012-04-24 10:52:11 51°15.519 2°54.865 32.7 11.2 29 9.5
2012-04-24 10:53:11 51°15.681 2°55.015 39.2 11.3 38 10
2012-04-24 10:54:11 51°15.814 2°55.225 50 11.3 46 10
2012-04-24 10:55:11 51°15.952 2°55.425 46.4 11.2 41 10.3
2012-04-24 10:56:11 51°16.102 2°55.604 40.3 11.2 35 10.5
2012-04-24 10:57:11 51°16.243 2°55.798 47.5 11.2 44 10.5
2012-04-24 10:58:11 51°16.376 2°56.003 47.8 11 48 10.3
2012-04-24 10:59:10 51°16.467 2°56.254 65.7 11.2 68 9.9
2012-04-24 11:00:11 51°16.552 2°56.524 61.4 11.2 59 9.8
2012-04-24 11:01:11 51°16.666 2°56.762 51.2 11.4 49 9.8
2012-04-24 11:02:11 51°16.79 2°56.991 56.7 11.4 57 9.7
2012-04-24 11:03:11 51°16.888 2°57.251 61.1 11.5 62 10
2012-04-24 11:04:11 51°16.974 2°57.522 59.8 11.4 58 9.5
2012-04-24 11:05:11 51°17.072 2°57.78 64 11.3 64 9.2
2012-04-24 11:06:11 51°17.158 2°58.047 59.7 11.3 58 9
2012-04-24 11:07:11 51°17.259 2°58.299 59.1 11.2 59 8.8
2012-04-24 11:08:11 51°17.348 2°58.562 64 11.3 63 8.9
2012-04-24 11:09:11 51°17.459 2°58.794 45.1 11.1 41 8.5
2012-04-24 11:10:11 51°17.588 2°59.005 55.2 11.1 53 8.2
2012-04-24 11:11:11 51°17.718 2°59.214 42.1 11.2 37 8
2012-04-24 11:12:11 51°17.869 2°59.389 41.8 11.2 42 7.9
2012-04-24 11:13:11 51°17.994 2°59.61 48.7 11.2 45 8.1
2012-04-24 11:14:11 51°18.126 2°59.822 47.5 11.2 46 6
2012-04-24 11:15:10 51°18.25 3°0.036 49.6 11.2 48 8.2
2012-04-24 11:16:11 51°18.367 3°0.272 54.5 11.1 54 8.2
2012-04-24 11:17:11 51°18.481 3°0.505 51.7 11.2 50 8.5
2012-04-24 11:18:11 51°18.587 3°0.751 59.3 11.3 60 8.6
2012-04-24 11:19:11 51°18.682 3°1.011 59.4 11.4 59 8.4
2012-04-24 11:20:11 51°18.783 3°1.268 58.1 11.3 57 8.4
2012-04-24 11:21:11 51°18.895 3°1.508 52.7 11.3 52 8.4
2012-04-24 11:22:11 51°19.006 3°1.749 54.2 11.3 53 8.6
2012-04-24 11:23:11 51°19.124 3°1.979 52 11.2 51 8.5
2012-04-24 11:24:11 51°19.223 3°2.228 61.3 11.1 61 8.3
2012-04-24 11:25:11 51°19.303 3°2.497 66.8 11.3 65 8.3
2012-04-24 11:26:10 51°19.381 3°2.766 65.3 11.4 66 8.5
2012-04-24 11:27:11 51°19.467 3°3.041 63.3 11.4 62 8.4
2012-04-24 11:28:11 51°19.575 3°3.286 54.3 11.2 54 8.5
2012-04-24 11:29:11 51°19.684 3°3.528 56.3 11.2 55 8.5
2012-04-24 11:30:11 51°19.784 3°3.78 60.3 11.3 61 8.3
2012-04-24 11:31:11 51°19.873 3°4.044 62.1 11.3 61 8.3
2012-04-24 11:32:11 51°19.974 3°4.297 58.2 11.3 57 8.4
2012-04-24 11:33:11 51°20.067 3°4.557 63 11.3 63 8.2
2012-04-24 11:34:11 51°20.166 3°4.813 54.1 11.3 52 8.2
2012-04-24 11:35:11 51°20.261 3°5.072 57.7 11.3 58 8.2
2012-04-24 11:36:11 51°20.365 3°5.322 54.6 11.3 54 8.3
2012-04-24 11:37:11 51°20.47 3°5.572 59.9 11.4 60 8.1
2012-04-24 11:38:11 51°20.559 3°5.84 63.4 11.4 63 6
2012-04-24 11:39:11 51°20.647 3°6.109 61.9 11.4 60 8.2
2012-04-24 11:40:11 51°20.744 3°6.37 60.3 11.5 61 8.3
2012-04-24 11:41:11 51°20.829 3°6.643 65.1 11.5 65 8.2
2012-04-24 11:42:11 51°20.907 3°6.925 65.8 11.6 66 8.4
2012-04-24 11:43:11 51°20.997 3°7.199 61.7 11.7 60 8.5
2012-04-24 11:44:11 51°21.103 3°7.457 56.1 11.7 55 8.8
2012-04-24 11:45:11 51°21.203 3°7.726 62.9 11.9 63 8.8
2012-04-24 11:46:11 51°21.292 3°8.01 62.3 12 61 9.2
2012-04-24 11:47:11 51°21.394 3°8.285 60.5 12 61 9.9
2012-04-24 11:48:11 51°21.48 3°8.574 67.6 12.1 67 10.2
2012-04-24 11:49:11 51°21.569 3°8.862 60.4 12.1 62 10.7
2012-04-24 11:50:11 51°21.66 3°9.15 66.1 12.2 65 11.6
2012-04-24 11:51:10 51°21.737 3°9.444 70.4 12.3 71 12.3
2012-04-24 11:52:11 51°21.798 3°9.762 72.6 12.4 71 13
2012-04-24 11:53:11 51°21.878 3°10.065 67.8 12.4 67 14.3
2012-04-24 11:54:11 51°21.952 3°10.375 69.6 12.6 69 15.9
2012-04-24 11:55:11 51°21.994 3°10.704 84.1 12.7 82 18
2012-04-24 11:56:11 51°22.001 3°11.042 97.8 12.7 101 19.4
2012-04-24 11:57:11 51°21.892 3°11.332 134.6 13 134 19.9
2012-04-24 11:58:14 51°21.72 3°11.57 141.2 12.9 141 -999
2012-04-24 11:59:14 51°21.546 3°11.765 146 12.6 144 -999
2012-04-24 12:00:14 51°21.376 3°11.96 147.4 12.6 149 17.5
2012-04-24 12:01:14 51°21.206 3°12.117 153.1 11.5 152 17
2012-04-24 12:02:14 51°21.033 3°12.246 158.3 11.3 158 -999
2012-04-24 12:03:13 51°20.866 3°12.302 184.6 9.9 189 17.1
2012-04-24 12:04:12 51°20.713 3°12.213 206.1 10 203 17.3
2012-04-24 12:05:11 51°20.562 3°12.108 205 10 205 17.5
2012-04-24 12:06:11 51°20.418 3°11.996 207.7 9.1 207 17.8
2012-04-24 12:07:12 51°20.291 3°11.9 205.5 7.3 205 15.1
2012-04-24 12:08:14 51°20.185 3°11.82 205 6.3 203 -999
2012-04-24 12:09:12 51°20.109 3°11.762 220 3.6 218 17.7
2012-04-24 12:10:12 51°20.094 3°11.747 263.4 1 96 17.7
2012-04-24 12:11:14 51°20.093 3°11.729 286.7 2 285 -999
2012-04-24 12:12:14 51°20.11 3°11.686 323.2 1.8 323 -999
2012-04-24 12:13:14 51°20.137 3°11.664 345.3 1.5 345 17.1
2012-04-24 12:14:14 51°20.144 3°11.661 3.5 0.2 299 -999
2012-04-24 12:15:14 51°20.144 3°11.66 14.9 0.1 110 -999
2012-04-24 12:16:14 51°20.144 3°11.66 15 0.1 36 -999
2012-04-24 12:17:14 51°20.146 3°11.662 17.4 0.2 47 -999
2012-04-24 12:18:14 51°20.148 3°11.662 16.7 0.3 297 -999
2012-04-24 12:19:14 51°20.148 3°11.662 14 -999 76 -999
2012-04-24 12:20:14 51°20.148 3°11.662 14.1 -999 22 -999
2012-04-24 12:21:14 51°20.148 3°11.662 14.2 -999 49 16.9
2012-04-24 12:22:14 51°20.148 3°11.662 14.3 -999 82 16.9
2012-04-24 12:23:13 51°20.148 3°11.662 14.2 -999 131 16.9
2012-04-24 12:24:11 51°20.148 3°11.661 14.2 -999 108 16.9
2012-04-24 12:25:14 51°20.148 3°11.661 13.9 -999 96 -999
2012-04-24 12:26:14 51°20.148 3°11.661 13.9 -999 79 17
2012-04-24 12:27:13 51°20.148 3°11.661 13.7 -999 203 17
2012-04-24 12:28:13 51°20.148 3°11.661 13.7 -999 103 -999
2012-04-24 12:29:14 51°20.148 3°11.661 14.1 -999 190 17.1
2012-04-24 12:30:14 51°20.148 3°11.661 13.8 -999 322 17.3
2012-04-24 12:31:14 51°20.149 3°11.661 14.1 -999 235 17.1
2012-04-24 12:32:12 51°20.148 3°11.661 13.3 -999 40 17.1
2012-04-24 12:33:14 51°20.148 3°11.661 13.9 -999 105 -999
2012-04-24 12:34:14 51°20.148 3°11.662 13.9 -999 314 -999
2012-04-24 12:35:14 51°20.148 3°11.662 13.7 -999 154 -999
2012-04-24 12:36:12 51°20.148 3°11.662 13.2 -999 63 17.2
2012-04-24 12:37:14 51°20.148 3°11.662 13.5 -999 163 -999
2012-04-24 12:38:13 51°20.148 3°11.663 13.7 -999 1 17.3
2012-04-24 12:39:14 51°20.148 3°11.663 13 -999 74 -999
2012-04-24 12:40:14 51°20.148 3°11.663 13.7 -999 207 -999
2012-04-24 12:41:14 51°20.148 3°11.663 13.1 -999 76 17.3
2012-04-24 12:42:14 51°20.148 3°11.663 13.7 -999 260 -999
2012-04-24 12:43:14 51°20.148 3°11.663 13.1 -999 88 -999
2012-04-24 12:44:14 51°20.148 3°11.662 13.9 -999 144 -999
2012-04-24 12:45:14 51°20.148 3°11.662 13.2 -999 320 -999
2012-04-24 12:46:14 51°20.148 3°11.662 13.5 -999 254 -999
2012-04-24 12:47:14 51°20.148 3°11.662 13 -999 339 -999
2012-04-24 12:48:14 51°20.148 3°11.662 13.6 -999 229 -999
2012-04-24 12:49:14 51°20.148 3°11.662 13.2 0.1 251 -999
2012-04-24 12:50:14 51°20.148 3°11.662 13.5 -999 20 -999
2012-04-24 12:51:14 51°20.148 3°11.662 13.9 -999 297 -999
2012-04-24 12:52:13 51°20.148 3°11.662 13.2 -999 182 17.6
2012-04-24 12:53:14 51°20.148 3°11.662 13.8 -999 218 -999
2012-04-24 12:54:14 51°20.148 3°11.661 12.7 -999 97 17.6
2012-04-24 12:55:14 51°20.148 3°11.661 13.7 -999 91 -999
2012-04-24 12:56:14 51°20.148 3°11.662 12.9 -999 49 -999
2012-04-24 12:57:14 51°20.148 3°11.662 13.6 -999 255 -999
2012-04-24 12:58:14 51°20.148 3°11.662 13.4 -999 131 17.7
2012-04-24 12:59:14 51°20.148 3°11.662 13.1 -999 200 17.7
2012-04-24 13:00:14 51°20.148 3°11.662 13 -999 184 17.8
2012-04-24 13:01:13 51°20.148 3°11.662 13.2 -999 274 -999
2012-04-24 13:02:14 51°20.148 3°11.661 12.9 -999 114 17.8
2012-04-24 13:03:14 51°20.148 3°11.661 13.6 -999 213 -999
2012-04-24 13:04:14 51°20.148 3°11.661 13.7 -999 193 -999
2012-04-24 13:05:14 51°20.148 3°11.661 13.1 -999 230 -999
2012-04-24 13:06:14 51°20.148 3°11.661 12.7 -999 101 -999
2012-04-24 13:07:14 51°20.148 3°11.661 13.5 -999 235 -999
2012-04-24 13:08:14 51°20.149 3°11.661 13.2 -999 149 18
2012-04-24 13:09:14 51°20.149 3°11.661 13.3 -999 339 18
2012-04-24 13:10:14 51°20.149 3°11.661 12.8 -999 175 -999
2012-04-24 13:11:14 51°20.15 3°11.661 13.3 -999 85 18
2012-04-24 13:12:14 51°20.149 3°11.661 13.2 -999 257 18.3
2012-04-24 13:13:14 51°20.149 3°11.661 12.8 -999 136 -999
2012-04-24 13:14:13 51°20.149 3°11.661 12.8 -999 137 18.1
2012-04-24 13:15:14 51°20.148 3°11.661 12.9 -999 250 18.1
2012-04-24 13:16:14 51°20.148 3°11.661 12.6 -999 183 18.2
2012-04-24 13:17:14 51°20.148 3°11.661 12.8 -999 156 -999
2012-04-24 13:18:14 51°20.149 3°11.662 12.8 -999 183 -999
2012-04-24 13:19:14 51°20.149 3°11.662 13.1 -999 122 -999
2012-04-24 13:20:14 51°20.149 3°11.662 13.2 -999 125 -999
2012-04-24 13:21:14 51°20.149 3°11.663 13.2 -999 234 18.3
2012-04-24 13:22:14 51°20.148 3°11.662 12.9 -999 143 18.5
2012-04-24 13:23:14 51°20.148 3°11.662 13.1 -999 126 18.3
2012-04-24 13:24:14 51°20.148 3°11.661 13.2 -999 203 -999
2012-04-24 13:25:14 51°20.148 3°11.661 13 -999 7 -999
2012-04-24 13:26:14 51°20.148 3°11.661 12.4 -999 78 18.3
2012-04-24 13:27:14 51°20.148 3°11.661 12.9 -999 83 -999
2012-04-24 13:28:14 51°20.148 3°11.661 13.2 -999 181 -999
2012-04-24 13:29:14 51°20.148 3°11.662 12.8 -999 124 18.4
2012-04-24 13:30:14 51°20.148 3°11.662 13.2 -999 289 18.4
2012-04-24 13:31:14 51°20.147 3°11.662 13.2 -999 150 -999
2012-04-24 13:32:14 51°20.147 3°11.662 13.4 -999 264 -999
2012-04-24 13:33:14 51°20.147 3°11.662 12.9 -999 8 -999
2012-04-24 13:34:14 51°20.147 3°11.662 13.2 -999 261 18.4
2012-04-24 13:35:14 51°20.148 3°11.662 13.7 -999 334 -999
2012-04-24 13:36:14 51°20.148 3°11.662 13.3 -999 1 -999
2012-04-24 13:37:14 51°20.148 3°11.662 13.3 -999 36 -999
2012-04-24 13:38:14 51°20.148 3°11.662 13.7 -999 278 18.4
2012-04-24 13:39:14 51°20.148 3°11.663 13.3 -999 337 -999
2012-04-24 13:40:14 51°20.148 3°11.663 13.5 -999 48 -999
2012-04-24 13:41:14 51°20.148 3°11.662 13.3 -999 336 -999
2012-04-24 13:42:14 51°20.148 3°11.663 13.7 -999 255 18.5
2012-04-24 13:43:14 51°20.148 3°11.663 13.1 0.1 220 18.5
2012-04-24 13:44:14 51°20.148 3°11.663 13.9 -999 20 -999
2012-04-24 13:45:14 51°20.148 3°11.662 13.5 -999 99 -999
2012-04-24 13:46:14 51°20.148 3°11.662 13.7 -999 214 -999
2012-04-24 13:47:14 51°20.148 3°11.661 13.7 -999 353 -999
2012-04-24 13:48:14 51°20.148 3°11.661 13.4 -999 19 -999
2012-04-24 13:49:14 51°20.147 3°11.661 13.7 -999 124 -999
2012-04-24 13:50:14 51°20.147 3°11.661 13.5 -999 108 -999
2012-04-24 13:51:14 51°20.148 3°11.661 13.7 -999 112 -999
2012-04-24 13:52:14 51°20.147 3°11.661 13.7 -999 327 -999
2012-04-24 13:53:14 51°20.148 3°11.662 13.8 -999 141 -999
2012-04-24 13:54:14 51°20.148 3°11.662 13.7 -999 260 -999
2012-04-24 13:55:14 51°20.148 3°11.662 13.4 -999 245 -999
2012-04-24 13:56:14 51°20.148 3°11.662 13.5 -999 281 -999
2012-04-24 13:57:14 51°20.148 3°11.661 13.4 -999 110 18.6
2012-04-24 13:58:14 51°20.148 3°11.662 13.4 -999 218 18.6
2012-04-24 13:59:13 51°20.148 3°11.662 13.3 -999 349 18.6
2012-04-24 14:00:14 51°20.148 3°11.662 13.6 -999 297 18.6
2012-04-24 14:01:14 51°20.148 3°11.662 13.2 -999 354 -999
2012-04-24 14:02:14 51°20.147 3°11.662 13.4 -999 308 -999
2012-04-24 14:03:14 51°20.147 3°11.662 13.7 -999 349 18.6
2012-04-24 14:04:14 51°20.147 3°11.661 13.9 -999 9 18.9
2012-04-24 14:05:14 51°20.147 3°11.661 12.8 0.1 52 18.5
2012-04-24 14:06:14 51°20.148 3°11.662 14.2 -999 231 18.6
2012-04-24 14:07:14 51°20.147 3°11.661 13.2 -999 357 18.8
2012-04-24 14:08:14 51°20.148 3°11.662 14 -999 282 -999
2012-04-24 14:09:14 51°20.148 3°11.661 14 0.1 353 18.6
2012-04-24 14:10:14 51°20.147 3°11.661 13.4 -999 355 18.7
2012-04-24 14:11:14 51°20.148 3°11.663 13.9 -999 10 18.7
2012-04-24 14:12:14 51°20.148 3°11.663 13.6 -999 156 -999
2012-04-24 14:13:14 51°20.149 3°11.663 13.9 -999 354 18.7
2012-04-24 14:14:14 51°20.149 3°11.662 13.2 -999 332 -999
2012-04-24 14:15:14 51°20.149 3°11.662 13.5 -999 45 18.7
2012-04-24 14:16:14 51°20.148 3°11.662 13.5 -999 308 18.6
2012-04-24 14:17:14 51°20.148 3°11.662 13.5 -999 92 -999
2012-04-24 14:18:14 51°20.148 3°11.661 13.9 -999 298 18.7
2012-04-24 14:19:14 51°20.149 3°11.662 13.5 0.1 355 18.6
2012-04-24 14:20:14 51°20.149 3°11.661 13.2 -999 279 -999
2012-04-24 14:21:13 51°20.149 3°11.662 13.7 -999 257 18.6
2012-04-24 14:22:14 51°20.15 3°11.662 13.5 -999 54 18.6
2012-04-24 14:23:14 51°20.148 3°11.662 13.5 -999 311 -999
2012-04-24 14:24:13 51°20.149 3°11.662 13.5 -999 326 18.6
2012-04-24 14:25:13 51°20.147 3°11.662 13.9 -999 302 -999
2012-04-24 14:26:11 51°20.146 3°11.662 13.8 -999 7 18.6
2012-04-24 14:27:12 51°20.147 3°11.662 13.8 -999 254 18.6
2012-04-24 14:28:12 51°20.147 3°11.661 13.7 -999 343 18.6
2012-04-24 14:29:14 51°20.147 3°11.662 14 -999 5 -999
2012-04-24 14:30:14 51°20.148 3°11.661 14.3 -999 301 -999
2012-04-24 14:31:13 51°20.148 3°11.662 14.2 0.1 8 18.6
2012-04-24 14:32:13 51°20.148 3°11.662 14.2 -999 298 18.6
2012-04-24 14:33:14 51°20.145 3°11.663 16.6 0.2 170 -999
2012-04-24 14:34:14 51°20.149 3°11.671 21.3 0.8 32 -999
2012-04-24 14:35:14 51°20.166 3°11.685 19.4 1.4 22 18.7
2012-04-24 14:36:14 51°20.205 3°11.711 21.1 3.8 19 19.1
2012-04-24 14:37:12 51°20.281 3°11.762 25.9 6.1 26 19.7
2012-04-24 14:38:11 51°20.38 3°11.874 43.8 8.5 43 20.2
2012-04-24 14:39:11 51°20.48 3°12.052 50.4 9.3 50 19.6
2012-04-24 14:40:11 51°20.582 3°12.247 53.4 9.6 52 19.1
2012-04-24 14:41:11 51°20.7 3°12.406 26.9 9.1 23 19.2
2012-04-24 14:42:14 51°20.859 3°12.427 355.6 9.2 353 -999
2012-04-24 14:43:14 51°21.002 3°12.346 332 9.3 332 -999
2012-04-24 14:44:14 51°21.138 3°12.219 329.2 9.6 330 -999
2012-04-24 14:45:14 51°21.273 3°12.075 329.3 9.7 324 -999
2012-04-24 14:46:14 51°21.404 3°11.938 328.8 9.2 326 -999
2012-04-24 14:47:14 51°21.535 3°11.819 331.1 9.1 331 -999
2012-04-24 14:48:14 51°21.678 3°11.688 328.9 11.1 328 -999
2012-04-24 14:49:14 51°21.841 3°11.512 324.7 12.1 323 -999
2012-04-24 14:50:12 51°22.004 3°11.355 324.2 11.7 331 20.1
2012-04-24 14:51:11 51°22.151 3°11.181 308.5 10.9 312 19.9
2012-04-24 14:52:10 51°22.222 3°10.933 280.1 10.5 281 20.3
2012-04-24 14:53:11 51°22.212 3°10.655 254.8 10.4 254 21.5
2012-04-24 14:54:10 51°22.136 3°10.413 240.4 10.3 239 18.3
2012-04-24 14:55:11 51°22.045 3°10.175 243.2 10.3 242 17.4
2012-04-24 14:56:11 51°21.979 3°9.928 253.5 8.4 265 16.4
2012-04-24 14:57:11 51°22.02 3°9.829 314.3 3.6 341 16.5
2012-04-24 14:58:11 51°22.062 3°9.843 358.3 2 42 16.5
2012-04-24 14:59:11 51°22.084 3°9.888 23.5 2.1 56 16.8
2012-04-24 15:00:11 51°22.102 3°9.936 31.3 2.1 61 16.8
2012-04-24 15:01:10 51°22.117 3°9.983 30.1 2 62 17.1
2012-04-24 15:02:11 51°22.134 3°10.032 23.2 2.7 47 17.1
2012-04-24 15:03:10 51°22.178 3°10.053 320.7 2.7 347 17.3
2012-04-24 15:04:11 51°22.19 3°10.004 246.9 3.9 240 17.2
2012-04-24 15:05:10 51°22.107 3°9.828 236.1 10.4 232 16.4
2012-04-24 15:06:11 51°21.99 3°9.608 235.1 10.7 234 15.8
2012-04-24 15:07:11 51°21.902 3°9.361 242.2 10.7 239 15.1
2012-04-24 15:08:11 51°21.794 3°9.135 233.3 10.7 232 14.4
2012-04-24 15:09:11 51°21.694 3°8.899 240.2 10.8 239 13.5
2012-04-24 15:10:10 51°21.594 3°8.67 234.2 10.6 230 12.9
2012-04-24 15:11:11 51°21.489 3°8.435 240.8 10.7 241 12.4
2012-04-24 15:12:10 51°21.402 3°8.194 241.2 10.6 241 12
2012-04-24 15:13:11 51°21.309 3°7.945 239.8 10.6 238 11.4
2012-04-24 15:14:11 51°21.201 3°7.72 231.1 10.7 230 10.9
2012-04-24 15:15:11 51°21.092 3°7.494 238.4 10.8 237 10.7
2012-04-24 15:16:11 51°20.988 3°7.263 235.9 10.6 232 10.5
2012-04-24 15:17:10 51°20.887 3°7.037 239.5 10.7 237 10.5
2012-04-24 15:18:11 51°20.797 3°6.787 242.5 10.6 241 10.4
2012-04-24 15:19:10 51°20.708 3°6.549 240 10.6 239 10.2
2012-04-24 15:20:11 51°20.605 3°6.313 235.1 10.6 233 10.3
2012-04-24 15:21:10 51°20.5 3°6.089 234.8 10.7 235 10.3
2012-04-24 15:22:11 51°20.386 3°5.863 232.9 10.6 231 10.2
2012-04-24 15:23:11 51°20.282 3°5.632 239.9 10.7 242 10.3
2012-04-24 15:24:11 51°20.193 3°5.385 241.1 10.7 241 10.4
2012-04-24 15:25:11 51°20.101 3°5.139 238.1 10.8 234 10.5
2012-04-24 15:26:11 51°19.989 3°4.913 233 10.8 232 10.6
2012-04-24 15:27:11 51°19.876 3°4.683 234.7 11 235 10.7
2012-04-24 15:28:10 51°19.774 3°4.447 239.6 10.9 235 10.8
2012-04-24 15:29:11 51°19.678 3°4.195 242.7 11 240 10.8
2012-04-24 15:30:10 51°19.586 3°3.949 240.8 10.9 239 10.8
2012-04-24 15:31:11 51°19.487 3°3.701 235.4 10.8 232 10.8
2012-04-24 15:32:11 51°19.372 3°3.477 233.8 11 233 11
2012-04-24 15:33:11 51°19.275 3°3.232 238.5 10.9 234 10.7
2012-04-24 15:34:11 51°19.155 3°3.013 231.6 11 230 10.8
2012-04-24 15:35:10 51°19.037 3°2.798 227.6 10.9 227 10.7
2012-04-24 15:36:11 51°18.919 3°2.568 237 11 239 10.5
2012-04-24 15:37:10 51°18.809 3°2.339 236.3 11 234 10.6
2012-04-24 15:38:11 51°18.694 3°2.105 232.2 11.1 229 10.6
2012-04-24 15:39:10 51°18.576 3°1.886 231.6 10.9 230 10.5
2012-04-24 15:40:11 51°18.464 3°1.651 237.1 11 236 10.4
2012-04-24 15:41:10 51°18.369 3°1.408 238.8 10.9 239 10.2
2012-04-24 15:42:11 51°18.265 3°1.167 233.4 11 229 10.4
2012-04-24 15:43:11 51°18.157 3°0.934 235.5 11 237 10.3
2012-04-24 15:44:11 51°18.054 3°0.693 236.7 11 235 10.4
2012-04-24 15:45:11 51°17.942 3°0.462 232.4 10.8 231 10.5
2012-04-24 15:46:10 51°17.828 3°0.244 234 10.9 233 11.1
2012-04-24 15:47:11 51°17.709 3°0.017 229.8 10.9 228 11.3
2012-04-24 15:48:10 51°17.605 2°59.786 238.4 10.8 237 11.5
2012-04-24 15:49:11 51°17.504 2°59.544 236.2 10.8 236 11.5
2012-04-24 15:50:11 51°17.394 2°59.316 232.7 10.8 230 11.8
2012-04-24 15:51:11 51°17.287 2°59.086 236.7 10.7 236 11.9
2012-04-24 15:52:11 51°17.179 2°58.858 233.2 10.7 230 11.9
2012-04-24 15:53:10 51°17.065 2°58.646 229.3 10.7 229 12
2012-04-24 15:54:11 51°16.953 2°58.421 238.7 10.7 240 12.1
2012-04-24 15:55:10 51°16.87 2°58.174 241.8 10.6 239 12
2012-04-24 15:56:11 51°16.772 2°57.934 235.7 10.7 234 12
2012-04-24 15:57:11 51°16.665 2°57.702 235.4 10.9 235 12.1
2012-04-24 15:58:11 51°16.559 2°57.461 234.9 11 233 11.7
2012-04-24 15:59:11 51°16.454 2°57.223 236.2 11 233 11.6
2012-04-24 16:00:11 51°16.344 2°56.991 233.9 10.9 231 11.5
2012-04-24 16:01:11 51°16.223 2°56.778 230.7 10.8 226 11.5
2012-04-24 16:02:11 51°16.111 2°56.552 237.3 10.9 236 11.3
2012-04-24 16:03:11 51°16.005 2°56.315 235.9 11 236 11.3
2012-04-24 16:04:10 51°15.906 2°56.075 237.6 11 238 11.3
2012-04-24 16:05:10 51°15.797 2°55.842 230.2 11 225 11.3
2012-04-24 16:06:10 51°15.658 2°55.65 219.4 11 218 10.9
2012-04-24 16:07:11 51°15.519 2°55.451 225.8 11.1 221 10.8
2012-04-24 16:08:11 51°15.372 2°55.276 217.4 11.2 215 10.5
2012-04-24 16:09:10 51°15.214 2°55.141 205.3 11 202 10.6
2012-04-24 16:10:11 51°15.037 2°55.032 203.3 11.3 203 11.4
2012-04-24 16:11:10 51°14.864 2°54.94 195.3 11.3 187 12
2012-04-24 16:12:10 51°14.676 2°54.976 171.9 11.6 164 13.1
2012-04-24 16:13:10 51°14.49 2°55.066 159.8 11.7 158 12.5
2012-04-24 16:14:14 51°14.321 2°55.228 146.9 10.4 148 -999
2012-04-24 16:15:14 51°14.183 2°55.367 148.2 9.2 148 -999
2012-04-24 16:16:14 51°14.069 2°55.464 156.9 7 157 -999
2012-04-24 16:17:14 51°13.967 2°55.532 157.5 6.5 156 -999
2012-04-24 16:18:14 51°13.869 2°55.601 156.8 6.4 156 -999
2012-04-24 16:19:14 51°13.778 2°55.677 146.1 5.9 144 -999
2012-04-24 16:20:14 51°13.713 2°55.789 127.9 5.8 127 -999
2012-04-24 16:21:14 51°13.664 2°55.899 121.9 4.3 121 -999
2012-04-24 16:22:14 51°13.642 2°55.984 106.2 2.9 106 -999